createdAt,value
2023-02-15T00:01:36.855Z,45.83
2023-02-15T00:04:04.796Z,45.63
2023-02-15T00:06:31.770Z,43.90
2023-02-15T00:08:58.811Z,39.97
2023-02-15T00:11:40.775Z,42.40
2023-02-15T00:14:09.250Z,43.05
2023-02-15T00:16:36.586Z,40.80
2023-02-15T00:19:04.014Z,43.75
2023-02-15T00:21:32.510Z,47.13
2023-02-15T00:24:01.200Z,40.85
2023-02-15T00:26:28.815Z,42.83
2023-02-15T00:28:56.722Z,40.70
2023-02-15T00:31:23.534Z,42.15
2023-02-15T00:33:50.195Z,44.85
2023-02-15T00:36:16.822Z,41.78
2023-02-15T00:38:43.455Z,43.25
2023-02-15T00:41:10.967Z,42.40
2023-02-15T00:43:37.964Z,43.47
2023-02-15T00:46:06.240Z,41.58
2023-02-15T00:48:33.437Z,42.08
2023-02-15T00:51:00.964Z,44.25
2023-02-15T00:53:29.749Z,42.15
2023-02-15T00:55:56.876Z,41.92
2023-02-15T00:58:23.688Z,42.42
2023-02-15T01:00:50.625Z,43.42
2023-02-15T01:03:19.043Z,40.55
2023-02-15T01:05:45.820Z,44.10
2023-02-15T01:08:12.428Z,41.72
2023-02-15T01:10:39.326Z,44.00
2023-02-15T01:13:06.228Z,40.95
2023-02-15T01:15:35.823Z,41.67
2023-02-15T01:18:03.103Z,42.75
2023-02-15T01:20:30.592Z,44.40
2023-02-15T01:22:58.303Z,43.72
2023-02-15T01:25:25.531Z,41.95
2023-02-15T01:27:52.288Z,40.45
2023-02-15T01:30:19.188Z,42.03
2023-02-15T01:32:45.758Z,44.35
2023-02-15T01:35:12.517Z,40.13
2023-02-15T01:37:39.407Z,40.55
2023-02-15T01:40:13.260Z,41.60
2023-02-15T01:42:40.247Z,40.38
2023-02-15T01:45:25.787Z,41.60
2023-02-15T01:48:06.190Z,40.75
2023-02-15T01:50:42.010Z,42.40
2023-02-15T01:53:28.190Z,40.88
2023-02-15T01:56:06.127Z,41.08
2023-02-15T01:58:34.740Z,40.80
2023-02-15T02:01:02.406Z,41.88
2023-02-15T02:03:50.259Z,39.65
2023-02-15T02:06:16.850Z,40.10
2023-02-15T02:08:44.182Z,42.90
2023-02-15T02:11:15.491Z,41.65
2023-02-15T02:13:43.631Z,40.35
2023-02-15T02:16:32.615Z,36.70
2023-02-15T02:18:59.306Z,40.15
2023-02-15T02:21:46.032Z,41.80
2023-02-15T02:24:40.151Z,38.65
2023-02-15T02:27:18.515Z,38.25
2023-02-15T02:30:20.110Z,38.90
2023-02-15T02:33:14.737Z,37.78
2023-02-15T02:35:57.843Z,39.50
2023-02-15T02:38:57.569Z,37.70
2023-02-15T02:41:24.087Z,38.05
2023-02-15T02:44:08.622Z,38.95
2023-02-15T02:46:54.556Z,37.30
2023-02-15T02:49:36.555Z,36.45
2023-02-15T02:52:42.759Z,35.33
2023-02-15T02:55:24.297Z,35.15
2023-02-15T02:58:20.045Z,34.80
2023-02-15T03:01:19.076Z,36.22
2023-02-15T03:03:51.342Z,35.25
2023-02-15T03:06:29.912Z,35.53
2023-02-15T03:09:04.242Z,36.33
2023-02-15T03:11:31.191Z,35.63
2023-02-15T03:13:58.533Z,34.67
2023-02-15T03:16:28.594Z,33.42
2023-02-15T03:18:58.532Z,34.80
2023-02-15T03:21:59.011Z,32.22
2023-02-15T03:24:44.413Z,33.63
2023-02-15T03:27:26.168Z,31.77
2023-02-15T03:29:59.768Z,35.40
2023-02-15T03:32:28.926Z,35.00
2023-02-15T03:34:56.070Z,34.13
2023-02-15T03:37:31.616Z,34.47
2023-02-15T03:40:25.990Z,35.10
2023-02-15T03:43:12.037Z,29.83
2023-02-15T03:45:55.428Z,31.25
2023-02-15T03:48:33.306Z,32.03
2023-02-15T03:51:25.040Z,32.67
2023-02-15T03:53:53.581Z,33.10
2023-02-15T03:56:20.151Z,32.10
2023-02-15T03:59:05.325Z,31.58
2023-02-15T04:01:58.141Z,32.03
2023-02-15T04:04:33.875Z,29.13
2023-02-15T04:07:01.607Z,31.60
2023-02-15T04:09:46.885Z,30.63
2023-02-15T04:12:13.782Z,29.95
2023-02-15T04:14:58.965Z,30.05
2023-02-15T04:17:25.673Z,29.00
2023-02-15T04:20:11.031Z,31.38
2023-02-15T04:22:56.255Z,30.50
2023-02-15T04:25:22.939Z,31.77
2023-02-15T04:27:52.753Z,31.50
2023-02-15T04:30:23.131Z,32.65
2023-02-15T04:32:49.929Z,34.03
2023-02-15T04:35:16.988Z,29.98
2023-02-15T04:37:43.849Z,31.95
2023-02-15T04:40:13.519Z,32.95
2023-02-15T04:42:40.087Z,30.65
2023-02-15T04:45:07.344Z,31.00
2023-02-15T04:47:34.404Z,31.15
2023-02-15T04:50:00.939Z,32.33
2023-02-15T04:52:27.747Z,32.83
2023-02-15T04:54:54.329Z,31.13
2023-02-15T04:57:20.848Z,33.00
2023-02-15T04:59:47.420Z,31.70
2023-02-15T05:02:14.211Z,33.58
2023-02-15T05:04:40.985Z,31.75
2023-02-15T05:07:07.734Z,33.50
2023-02-15T05:09:34.331Z,33.13
2023-02-15T05:12:01.078Z,32.05
2023-02-15T05:14:27.762Z,32.90
2023-02-15T05:16:55.176Z,31.58
2023-02-15T05:19:21.966Z,32.60
2023-02-15T05:21:48.520Z,34.30
2023-02-15T05:24:33.875Z,32.50
2023-02-15T05:27:18.752Z,33.17
2023-02-15T05:29:45.367Z,35.47
2023-02-15T05:32:15.185Z,34.67
2023-02-15T05:34:41.999Z,34.40
2023-02-15T05:37:09.373Z,33.05
2023-02-15T05:39:36.072Z,36.67
2023-02-15T05:42:02.755Z,30.58
2023-02-15T05:44:29.333Z,35.33
2023-02-15T05:46:55.930Z,32.20
2023-02-15T05:49:22.654Z,34.38
2023-02-15T05:51:50.063Z,33.80
2023-02-15T05:54:16.706Z,30.33
2023-02-15T05:56:43.296Z,31.95
2023-02-15T05:59:10.041Z,30.90
2023-02-15T06:01:36.788Z,32.63
2023-02-15T06:04:03.599Z,31.10
2023-02-15T06:06:30.201Z,36.33
2023-02-15T06:08:56.762Z,35.30
2023-02-15T06:11:23.637Z,38.90
2023-02-15T06:13:50.231Z,35.47
2023-02-15T06:16:17.386Z,31.45
2023-02-15T06:18:44.385Z,31.63
2023-02-15T06:21:11.049Z,32.03
2023-02-15T06:23:37.655Z,30.90
2023-02-15T06:26:04.642Z,34.53
2023-02-15T06:28:31.400Z,29.63
2023-02-15T06:30:58.149Z,34.63
2023-02-15T06:33:24.933Z,28.75
2023-02-15T06:35:51.549Z,30.20
2023-02-15T06:38:18.664Z,30.25
2023-02-15T06:40:45.214Z,31.15
2023-02-15T06:43:11.766Z,27.75
2023-02-15T06:45:38.315Z,32.13
2023-02-15T06:48:07.906Z,29.42
2023-02-15T06:50:35.021Z,27.30
2023-02-15T06:53:01.580Z,25.30
2023-02-15T06:55:28.159Z,25.60
2023-02-15T06:57:54.908Z,26.70
2023-02-15T07:00:23.244Z,24.90
2023-02-15T07:02:58.859Z,26.35
2023-02-15T07:05:32.252Z,31.75
2023-02-15T07:08:00.033Z,25.70
2023-02-15T07:10:27.626Z,26.50
2023-02-15T07:12:54.787Z,30.40
2023-02-15T07:15:22.673Z,25.95
2023-02-15T07:17:50.299Z,25.42
2023-02-15T07:20:22.657Z,21.85
2023-02-15T07:22:49.666Z,27.10
2023-02-15T07:25:16.422Z,25.08
2023-02-15T07:27:43.098Z,30.75
2023-02-15T07:30:13.176Z,24.50
2023-02-15T07:32:59.853Z,28.10
2023-02-15T07:35:26.682Z,29.35
2023-02-15T07:37:54.457Z,27.42
2023-02-15T07:40:23.441Z,27.05
2023-02-15T07:42:52.220Z,27.45
2023-02-15T07:45:20.112Z,26.23
2023-02-15T07:47:46.696Z,27.92
2023-02-15T07:50:13.490Z,22.02
2023-02-15T07:52:40.094Z,38.00
2023-02-15T07:55:07.052Z,26.60
2023-02-15T07:57:33.590Z,22.67
2023-02-15T08:00:00.201Z,22.20
2023-02-15T08:02:26.871Z,30.38
2023-02-15T08:04:53.587Z,18.38
2023-02-15T08:07:20.211Z,26.98
2023-02-15T08:09:46.823Z,25.13
2023-02-15T08:12:13.457Z,29.92
2023-02-15T08:14:40.032Z,18.48
2023-02-15T08:17:06.625Z,25.13
2023-02-15T08:19:34.168Z,23.55
2023-02-15T08:22:05.059Z,27.70
2023-02-15T08:24:34.192Z,26.52
2023-02-15T08:27:06.084Z,22.23
2023-02-15T08:29:34.226Z,36.03
2023-02-15T08:32:07.401Z,33.50
2023-02-15T08:34:38.719Z,28.48
2023-02-15T08:37:07.095Z,26.70
2023-02-15T08:39:33.950Z,21.95
2023-02-15T08:42:00.513Z,27.90
2023-02-15T08:44:27.131Z,36.05
2023-02-15T08:46:53.727Z,22.00
2023-02-15T08:49:22.366Z,27.77
2023-02-15T08:51:50.264Z,22.20
2023-02-15T08:54:19.640Z,23.48
2023-02-15T08:56:47.421Z,28.75
2023-02-15T08:59:19.814Z,19.02
2023-02-15T09:01:49.961Z,21.52
2023-02-15T09:04:17.183Z,21.05
2023-02-15T09:06:47.602Z,22.50
2023-02-15T09:09:15.731Z,25.70
2023-02-15T09:11:44.898Z,27.70
2023-02-15T09:14:15.484Z,31.15
2023-02-15T09:16:47.331Z,23.70
2023-02-15T09:19:14.354Z,20.52
2023-02-15T09:21:41.352Z,20.58
2023-02-15T09:24:12.127Z,22.42
2023-02-15T09:26:43.353Z,24.83
2023-02-15T09:29:11.712Z,17.98
2023-02-15T09:31:42.506Z,19.10
2023-02-15T09:34:09.252Z,24.35
2023-02-15T09:36:38.322Z,26.80
2023-02-15T09:39:11.208Z,21.77
2023-02-15T09:41:53.441Z,21.38
2023-02-15T09:44:48.080Z,23.95
2023-02-15T09:47:36.526Z,23.77
2023-02-15T09:50:31.373Z,31.10
2023-02-15T09:53:06.567Z,22.08
2023-02-15T09:55:57.356Z,61.88
2023-02-15T09:58:45.546Z,19.98
2023-02-15T10:01:36.223Z,28.55
2023-02-15T10:04:26.222Z,20.00
2023-02-15T10:07:08.127Z,35.83
2023-02-15T10:09:53.158Z,21.67
2023-02-15T10:12:56.703Z,24.08
2023-02-15T10:16:06.755Z,25.30
2023-02-15T10:18:45.289Z,27.10
2023-02-15T10:21:44.328Z,22.13
2023-02-15T10:24:16.843Z,23.42
2023-02-15T10:26:48.909Z,30.02
2023-02-15T10:29:24.776Z,19.30
2023-02-15T10:31:58.278Z,28.52
2023-02-15T10:34:49.010Z,26.80
2023-02-15T10:37:48.880Z,21.90
2023-02-15T10:40:33.552Z,19.45
2023-02-15T10:43:15.423Z,30.55
2023-02-15T10:45:57.888Z,21.30
2023-02-15T10:48:52.548Z,22.35
2023-02-15T10:51:37.512Z,21.80
2023-02-15T10:54:27.321Z,22.67
2023-02-15T10:57:05.935Z,24.45
2023-02-15T10:59:50.612Z,24.95
2023-02-15T11:02:55.031Z,25.58
2023-02-15T11:05:35.579Z,24.88
2023-02-15T11:08:07.131Z,24.70
2023-02-15T11:10:53.553Z,25.15
2023-02-15T11:13:23.432Z,29.23
2023-02-15T11:15:58.936Z,23.17
2023-02-15T11:18:31.480Z,24.10
2023-02-15T11:21:50.975Z,22.02
2023-02-15T11:24:21.113Z,28.08
2023-02-15T11:27:13.760Z,31.98
2023-02-15T11:29:54.170Z,26.98
2023-02-15T11:32:24.957Z,26.20
2023-02-15T11:35:01.200Z,32.33
2023-02-15T11:38:20.462Z,35.75
2023-02-15T11:40:59.923Z,22.23
2023-02-15T11:43:40.909Z,21.08
2023-02-15T11:46:12.192Z,24.40
2023-02-15T11:48:39.693Z,29.80
2023-02-15T11:51:06.518Z,24.30
2023-02-15T11:53:37.176Z,20.90
2023-02-15T11:56:05.274Z,22.45
2023-02-15T11:58:41.554Z,20.42
2023-02-15T12:01:24.614Z,22.08
2023-02-15T12:03:54.026Z,24.98
2023-02-15T12:06:30.018Z,23.38
2023-02-15T12:09:28.822Z,21.75
2023-02-15T12:12:15.351Z,20.83
2023-02-15T12:15:08.594Z,25.15
2023-02-15T12:17:37.782Z,21.17
2023-02-15T12:20:21.582Z,23.33
2023-02-15T12:23:15.822Z,25.15
2023-02-15T12:25:55.427Z,22.30
2023-02-15T12:28:41.013Z,25.77
2023-02-15T12:31:22.239Z,28.80
2023-02-15T12:33:51.906Z,23.70
2023-02-15T12:36:21.333Z,22.30
2023-02-15T12:39:20.536Z,30.65
2023-02-15T12:41:57.933Z,25.20
2023-02-15T12:44:30.270Z,20.58
2023-02-15T12:47:18.234Z,23.00
2023-02-15T12:49:48.100Z,29.48
2023-02-15T12:52:23.929Z,26.73
2023-02-15T12:54:51.466Z,21.88
2023-02-15T12:57:28.610Z,22.48
2023-02-15T12:59:59.614Z,24.73
2023-02-15T13:02:29.597Z,20.05
2023-02-15T13:04:58.522Z,22.48
2023-02-15T13:07:30.654Z,24.15
2023-02-15T13:09:57.390Z,23.75
2023-02-15T13:12:33.205Z,24.40
2023-02-15T13:15:00.240Z,26.30
2023-02-15T13:17:31.035Z,21.73
2023-02-15T13:20:17.502Z,25.13
2023-02-15T13:22:47.747Z,23.48
2023-02-15T13:25:20.620Z,23.33
2023-02-15T13:27:51.278Z,27.60
2023-02-15T13:30:28.360Z,23.30
2023-02-15T13:33:03.072Z,25.02
2023-02-15T13:35:44.574Z,21.08
2023-02-15T13:38:23.139Z,19.25
2023-02-15T13:40:59.849Z,23.40
2023-02-15T13:43:58.913Z,21.95
2023-02-15T13:46:59.052Z,23.67
2023-02-15T13:49:25.604Z,18.70
2023-02-15T13:52:13.636Z,25.50
2023-02-15T13:55:01.851Z,22.70
2023-02-15T13:57:51.722Z,29.67
2023-02-15T14:00:34.365Z,19.45
2023-02-15T14:03:13.528Z,26.20
2023-02-15T14:05:55.272Z,32.63
2023-02-15T14:08:24.997Z,24.92
2023-02-15T14:11:07.291Z,25.15
2023-02-15T14:13:42.602Z,23.90
2023-02-15T14:16:33.839Z,27.63
2023-02-15T14:19:17.585Z,26.02
2023-02-15T14:22:00.923Z,23.50
2023-02-15T14:24:44.659Z,22.77
2023-02-15T14:27:17.888Z,23.45
2023-02-15T14:29:54.255Z,24.38
2023-02-15T14:32:42.095Z,24.40
2023-02-15T14:35:25.199Z,24.10
2023-02-15T14:38:05.598Z,25.42
2023-02-15T14:41:04.120Z,26.70
2023-02-15T14:44:11.216Z,29.55
2023-02-15T14:46:37.747Z,22.13
2023-02-15T14:49:04.260Z,24.92
2023-02-15T14:51:46.882Z,24.90
2023-02-15T14:54:22.617Z,24.23
2023-02-15T14:57:01.427Z,27.63
2023-02-15T14:59:58.507Z,24.75
2023-02-15T15:02:40.078Z,32.17
2023-02-15T15:05:32.080Z,25.75
2023-02-15T15:08:00.661Z,25.60
2023-02-15T15:10:27.393Z,27.58
2023-02-15T15:12:58.293Z,32.42
2023-02-15T15:15:27.880Z,27.98
2023-02-15T15:18:01.901Z,33.63
2023-02-15T15:20:51.735Z,32.35
2023-02-15T15:23:22.020Z,31.58
2023-02-15T15:25:52.938Z,33.00
2023-02-15T15:28:34.974Z,28.00
2023-02-15T15:31:10.246Z,33.80
2023-02-15T15:33:47.257Z,26.73
2023-02-15T15:36:54.312Z,27.08
2023-02-15T15:39:53.136Z,30.67
2023-02-15T15:42:22.703Z,32.65
2023-02-15T15:45:09.450Z,32.50
2023-02-15T15:48:07.261Z,33.88
2023-02-15T15:50:35.082Z,29.77
2023-02-15T15:53:04.030Z,31.88
2023-02-15T15:55:33.091Z,36.28
2023-02-15T15:58:06.657Z,32.78
2023-02-15T16:00:36.309Z,31.23
2023-02-15T16:03:03.686Z,31.80
2023-02-15T16:05:39.114Z,33.85
2023-02-15T16:08:06.110Z,36.17
2023-02-15T16:10:34.991Z,39.08
2023-02-15T16:13:03.142Z,33.38
2023-02-15T16:15:45.411Z,37.45
2023-02-15T16:18:18.047Z,38.83
2023-02-15T16:21:03.056Z,38.75
2023-02-15T16:23:44.783Z,43.75
2023-02-15T16:26:33.107Z,72.72
2023-02-15T16:29:00.504Z,129.38
2023-02-15T16:31:27.190Z,67.32
2023-02-15T16:33:56.144Z,45.38
2023-02-15T16:36:28.273Z,45.88
2023-02-15T16:38:57.861Z,39.58
2023-02-15T16:41:29.957Z,44.90
2023-02-15T16:44:17.712Z,39.88
2023-02-15T16:46:49.723Z,40.25
2023-02-15T16:49:24.170Z,40.17
2023-02-15T16:52:02.333Z,40.40
2023-02-15T16:54:31.173Z,42.63
2023-02-15T16:56:58.945Z,42.75
2023-02-15T16:59:52.985Z,39.42
2023-02-15T17:02:46.083Z,41.03
2023-02-15T17:05:12.095Z,44.78
2023-02-15T17:07:49.293Z,42.47
2023-02-15T17:10:37.527Z,40.22
2023-02-15T17:13:12.130Z,46.10
2023-02-15T17:15:42.311Z,43.90
2023-02-15T17:18:24.428Z,48.40
2023-02-15T17:20:54.977Z,60.70
2023-02-15T17:23:29.937Z,49.22
2023-02-15T17:25:57.484Z,48.63
2023-02-15T17:28:26.972Z,53.15
2023-02-15T17:30:55.603Z,57.53
2023-02-15T17:33:34.774Z,53.85
2023-02-15T17:36:08.039Z,58.45
2023-02-15T17:38:34.947Z,50.92
2023-02-15T17:41:03.131Z,55.00
2023-02-15T17:43:29.969Z,57.20
2023-02-15T17:45:58.557Z,53.10
2023-02-15T17:48:35.402Z,54.60
2023-02-15T17:51:04.490Z,59.53
2023-02-15T17:53:31.928Z,53.42
2023-02-15T17:55:58.644Z,51.42
2023-02-15T17:58:25.433Z,52.30
2023-02-15T18:01:14.499Z,50.33
2023-02-15T18:03:59.499Z,46.95
2023-02-15T18:06:44.555Z,45.92
2023-02-15T18:09:31.293Z,46.97
2023-02-15T18:11:58.424Z,41.58
2023-02-15T18:14:25.364Z,41.60
2023-02-15T18:16:53.001Z,42.33
2023-02-15T18:19:25.652Z,39.85
2023-02-15T18:21:55.754Z,41.40
2023-02-15T18:24:24.744Z,40.42
2023-02-15T18:26:53.801Z,38.65
2023-02-15T18:29:20.831Z,41.03
2023-02-15T18:31:53.989Z,36.22
2023-02-15T18:34:25.877Z,37.95
2023-02-15T18:36:52.584Z,38.63
2023-02-15T18:39:27.169Z,43.00
2023-02-15T18:41:54.367Z,38.47
2023-02-15T18:44:21.024Z,38.67
2023-02-15T18:46:47.698Z,39.10
2023-02-15T18:49:14.377Z,36.90
2023-02-15T18:51:41.315Z,34.13
2023-02-15T18:54:20.164Z,35.55
2023-02-15T18:56:53.713Z,39.63
2023-02-15T18:59:21.405Z,42.05
2023-02-15T19:01:48.132Z,37.83
2023-02-15T19:04:14.849Z,41.38
2023-02-15T19:06:46.003Z,40.35
2023-02-15T19:09:20.153Z,44.88
2023-02-15T19:11:52.392Z,38.85
2023-02-15T19:14:31.559Z,35.63
2023-02-15T19:17:00.034Z,29.20
2023-02-15T19:19:28.169Z,33.60
2023-02-15T19:21:55.633Z,33.95
2023-02-15T19:24:25.898Z,31.95
2023-02-15T19:26:53.197Z,29.58
2023-02-15T19:29:26.742Z,31.02
2023-02-15T19:31:53.541Z,29.83
2023-02-15T19:34:20.643Z,33.88
2023-02-15T19:36:50.363Z,33.45
2023-02-15T19:39:30.623Z,36.70
2023-02-15T19:41:57.311Z,34.47
2023-02-15T19:44:24.026Z,32.92
2023-02-15T19:46:50.719Z,40.33
2023-02-15T19:49:17.362Z,37.95
2023-02-15T19:51:44.303Z,41.63
2023-02-15T19:54:30.942Z,36.50
2023-02-15T19:56:57.923Z,38.08
2023-02-15T19:59:30.548Z,47.17
2023-02-15T20:01:58.061Z,44.67
2023-02-15T20:04:26.265Z,47.60
2023-02-15T20:06:55.910Z,47.67
2023-02-15T20:09:26.236Z,49.50
2023-02-15T20:11:53.835Z,47.85
2023-02-15T20:14:21.864Z,49.97
2023-02-15T20:16:48.746Z,48.30
2023-02-15T20:19:15.489Z,44.08
2023-02-15T20:21:44.835Z,45.72
2023-02-15T20:24:16.657Z,43.80
2023-02-15T20:26:44.015Z,47.40
2023-02-15T20:29:18.925Z,45.40
2023-02-15T20:31:46.154Z,52.13
2023-02-15T20:34:13.032Z,52.53
2023-02-15T20:36:40.595Z,53.42
2023-02-15T20:39:20.531Z,50.30
2023-02-15T20:41:48.397Z,58.38
2023-02-15T20:44:19.874Z,56.63
2023-02-15T20:46:47.366Z,59.80
2023-02-15T20:49:14.113Z,49.72
2023-02-15T20:51:41.748Z,37.45
2023-02-15T20:54:19.739Z,32.78
2023-02-15T20:56:48.128Z,33.13
2023-02-15T20:59:32.535Z,34.53
2023-02-15T21:02:23.938Z,37.78
2023-02-15T21:04:50.626Z,35.72
2023-02-15T21:07:20.016Z,36.67
2023-02-15T21:09:46.873Z,35.80
2023-02-15T21:12:19.053Z,43.38
2023-02-15T21:14:46.351Z,45.38
2023-02-15T21:17:15.151Z,50.78
2023-02-15T21:19:42.044Z,54.20
2023-02-15T21:22:14.502Z,60.50
2023-02-15T21:24:50.215Z,55.58
2023-02-15T21:27:17.378Z,47.13
2023-02-15T21:29:43.919Z,49.40
2023-02-15T21:32:10.832Z,47.00
2023-02-15T21:34:37.596Z,45.65
2023-02-15T21:37:05.115Z,48.40
2023-02-15T21:39:35.969Z,44.38
2023-02-15T21:42:21.867Z,41.83
2023-02-15T21:45:23.781Z,44.50
2023-02-15T21:47:50.620Z,45.75
2023-02-15T21:50:37.832Z,44.67
2023-02-15T21:53:06.902Z,52.17
2023-02-15T21:55:33.637Z,45.40
2023-02-15T21:58:01.021Z,54.38
2023-02-15T22:00:29.002Z,51.60
2023-02-15T22:02:58.477Z,60.42
2023-02-15T22:05:28.786Z,49.45
2023-02-15T22:07:57.409Z,51.38
2023-02-15T22:10:31.175Z,48.50
2023-02-15T22:13:00.691Z,50.38
2023-02-15T22:15:34.058Z,51.10
2023-02-15T22:18:00.669Z,55.67
2023-02-15T22:20:27.352Z,53.13
2023-02-15T22:22:54.258Z,53.78
2023-02-15T22:25:24.487Z,55.80
2023-02-15T22:27:54.195Z,55.80
2023-02-15T22:30:28.641Z,54.92
2023-02-15T22:32:56.771Z,58.70
2023-02-15T22:35:34.783Z,57.83
2023-02-15T22:38:01.652Z,58.78
2023-02-15T22:40:31.862Z,63.65
2023-02-15T22:43:02.670Z,56.80
2023-02-15T22:45:29.318Z,60.78
2023-02-15T22:47:58.669Z,55.95
2023-02-15T22:50:28.606Z,57.92
2023-02-15T22:52:55.657Z,55.70
2023-02-15T22:55:25.507Z,53.13
2023-02-15T22:57:55.170Z,61.47
2023-02-15T23:00:29.162Z,57.17
2023-02-15T23:02:56.014Z,58.00
2023-02-15T23:05:26.511Z,62.63
2023-02-15T23:07:53.317Z,61.33
2023-02-15T23:10:22.118Z,61.42
2023-02-15T23:13:08.306Z,59.10
2023-02-15T23:15:35.872Z,65.30
2023-02-15T23:18:13.078Z,60.03
2023-02-15T23:20:39.722Z,59.80
2023-02-15T23:23:10.807Z,60.78
2023-02-15T23:25:37.539Z,60.33
2023-02-15T23:28:05.194Z,61.53
2023-02-15T23:30:32.267Z,62.55
2023-02-15T23:32:58.978Z,61.00
2023-02-15T23:35:25.639Z,67.82
2023-02-15T23:37:52.260Z,64.47
2023-02-15T23:40:40.206Z,62.47
2023-02-15T23:43:11.937Z,62.85
2023-02-15T23:45:39.636Z,60.22
2023-02-15T23:48:38.964Z,63.58
2023-02-15T23:51:06.542Z,62.92
2023-02-15T23:53:33.884Z,65.50
2023-02-15T23:56:01.507Z,67.07
2023-02-15T23:58:35.316Z,70.18
